Time;durP1;ratioP1;P1;durP2;ratioP2;P2;SDS_P1;SDS_P2;PMS_P1;PMS_P2;Temp;Humidity;BMP_temperature;BMP_pressure;BME280_temperature;BME280_humidity;BME280_pressure;Samples;Min_cycle;Max_cycle;Signal;HPM_P1;HPM_P2
2022/12/30 00:01:06;;;;;;;0.25;0.25;;;;;;;;;;5054842;28;20526;-89
2022/12/30 00:03:34;;;;;;;0.85;0.30;;;;;;;;;;5056706;28;20450;-91
2022/12/30 00:06:03;;;;;;;0.35;0.20;;;;;;;;;;5056895;28;20045;-91
2022/12/30 00:08:47;;;;;;;0.57;0.30;;;;;;;;;;5048510;28;20041;-92
2022/12/30 00:11:18;;;;;;;1.55;0.40;;;;;;;;;;5053417;28;20151;-91
2022/12/30 00:33:26;;;;;;;0.20;0.20;;;;;;;;;;5049604;28;20152;-90
2022/12/30 00:35:54;;;;;;;0.28;0.20;;;;;;;;;;5046601;28;20114;-88
2022/12/30 00:38:22;;;;;;;0.20;0.20;;;;;;;;;;5045219;28;20049;-88
2022/12/30 00:43:38;;;;;;;0.10;0.10;;;;;;;;;;5052909;28;21286;-88
2022/12/30 00:46:07;;;;;;;0.57;0.22;;;;;;;;;;5050047;28;20045;-89
2022/12/30 00:56:53;;;;;;;0.10;0.10;;;;;;;;;;5049039;28;20056;-91
2022/12/30 00:59:23;;;;;;;0.10;0.10;;;;;;;;;;5047403;28;20509;-89
2022/12/30 01:01:51;;;;;;;0.00;0.00;;;;;;;;;;5053001;28;20048;-88
2022/12/30 01:04:20;;;;;;;0.10;0.10;;;;;;;;;;5054857;28;20049;-88
2022/12/30 01:06:48;;;;;;;0.10;0.10;;;;;;;;;;5066085;28;20060;-87
2022/12/30 01:09:17;;;;;;;0.00;0.00;;;;;;;;;;5058838;28;20057;-89
2022/12/30 01:12:07;;;;;;;0.00;0.00;;;;;;;;;;5053509;28;20067;-89
2022/12/30 01:14:35;;;;;;;1.00;0.20;;;;;;;;;;5055395;28;20639;-90
2022/12/30 01:17:05;;;;;;;0.60;0.30;;;;;;;;;;5055899;28;20049;-91
2022/12/30 01:19:33;;;;;;;0.38;0.13;;;;;;;;;;5053881;28;20053;-90
2022/12/30 01:22:02;;;;;;;0.00;0.00;;;;;;;;;;5052751;28;20445;-88
2022/12/30 01:24:30;;;;;;;0.10;0.10;;;;;;;;;;5047737;28;20056;-91
2022/12/30 01:26:59;;;;;;;0.08;0.08;;;;;;;;;;5051363;28;20061;-91
2022/12/30 01:29:29;;;;;;;0.10;0.10;;;;;;;;;;5047897;28;20088;-91
2022/12/30 01:31:59;;;;;;;0.17;0.10;;;;;;;;;;5045967;28;20139;-91
2022/12/30 01:34:28;;;;;;;0.10;0.10;;;;;;;;;;5053458;28;20084;-91
2022/12/30 01:36:56;;;;;;;0.35;0.35;;;;;;;;;;5054435;28;20049;-89
2022/12/30 01:39:25;;;;;;;0.03;0.03;;;;;;;;;;5051558;28;20049;-94
2022/12/30 01:41:54;;;;;;;0.10;0.10;;;;;;;;;;5051682;28;20059;-91
2022/12/30 01:44:41;;;;;;;0.08;0.08;;;;;;;;;;5049879;28;20041;-91
2022/12/30 01:47:12;;;;;;;0.00;0.00;;;;;;;;;;5053175;28;20049;-91
2022/12/30 01:49:43;;;;;;;0.25;0.22;;;;;;;;;;5050190;28;20040;-89
2022/12/30 01:52:11;;;;;;;0.00;0.00;;;;;;;;;;5048175;28;20054;-92
2022/12/30 01:54:40;;;;;;;0.08;0.08;;;;;;;;;;5045565;28;20053;-92
2022/12/30 01:57:09;;;;;;;0.10;0.10;;;;;;;;;;5052045;28;20075;-90
2022/12/30 01:59:39;;;;;;;1.40;0.20;;;;;;;;;;5050163;28;20068;-92
2022/12/30 02:02:07;;;;;;;0.10;0.10;;;;;;;;;;5050040;28;20569;-86
2022/12/30 02:04:37;;;;;;;0.10;0.10;;;;;;;;;;5050827;28;20420;-92
2022/12/30 02:07:09;;;;;;;0.13;0.13;;;;;;;;;;5052416;28;20053;-90
2022/12/30 02:09:37;;;;;;;0.10;0.10;;;;;;;;;;5051527;28;20052;-91
2022/12/30 02:12:06;;;;;;;0.10;0.10;;;;;;;;;;5054300;28;20053;-90
2022/12/30 02:14:37;;;;;;;0.10;0.10;;;;;;;;;;5053893;28;20171;-91
2022/12/30 02:17:06;;;;;;;0.10;0.10;;;;;;;;;;5047828;28;20045;-92
2022/12/30 02:19:55;;;;;;;0.10;0.10;;;;;;;;;;5055892;28;20523;-91
2022/12/30 02:22:30;;;;;;;12.32;0.65;;;;;;;;;;5046643;28;20044;-90
2022/12/30 02:25:16;;;;;;;0.40;0.22;;;;;;;;;;5051725;28;20060;-91
2022/12/30 02:27:52;;;;;;;0.10;0.10;;;;;;;;;;5055931;28;20126;-91
2022/12/30 02:30:22;;;;;;;0.10;0.10;;;;;;;;;;5044402;28;20064;-90
2022/12/30 02:33:06;;;;;;;1.27;0.22;;;;;;;;;;5058155;28;20065;-88
2022/12/30 02:35:38;;;;;;;0.10;0.10;;;;;;;;;;5051387;28;20045;-91
2022/12/30 02:38:11;;;;;;;0.00;0.00;;;;;;;;;;5055111;28;20215;-90
2022/12/30 02:46:17;;;;;;;0.10;0.10;;;;;;;;;;5055001;28;20052;-89
2022/12/30 02:48:49;;;;;;;0.17;0.17;;;;;;;;;;5054790;28;20041;-89
2022/12/30 02:54:04;;;;;;;0.10;0.10;;;;;;;;;;5054675;28;20044;-88
2022/12/30 02:56:33;;;;;;;0.30;0.20;;;;;;;;;;5049739;28;20068;-88
2022/12/30 03:04:48;;;;;;;0.10;0.10;;;;;;;;;;5056527;28;20114;-88
2022/12/30 03:07:22;;;;;;;0.10;0.10;;;;;;;;;;5053107;28;20084;-88
2022/12/30 03:12:46;;;;;;;0.10;0.10;;;;;;;;;;5053926;28;20151;-88
2022/12/30 03:15:17;;;;;;;0.00;0.00;;;;;;;;;;5054452;28;20091;-88
2022/12/30 03:17:47;;;;;;;0.10;0.10;;;;;;;;;;5055418;28;20093;-89
2022/12/30 03:20:19;;;;;;;0.08;0.08;;;;;;;;;;5055461;28;20041;-88
2022/12/30 03:28:23;;;;;;;0.10;0.10;;;;;;;;;;5054900;28;20051;-88
2022/12/30 03:30:52;;;;;;;0.10;0.10;;;;;;;;;;5052126;28;20045;-88
2022/12/30 03:33:21;;;;;;;0.00;0.00;;;;;;;;;;5056407;28;20571;-88
2022/12/30 03:35:52;;;;;;;0.10;0.10;;;;;;;;;;5059005;28;20319;-87
2022/12/30 03:38:22;;;;;;;0.00;0.00;;;;;;;;;;5055535;28;20595;-88
2022/12/30 03:40:53;;;;;;;0.10;0.10;;;;;;;;;;5051722;28;20053;-89
2022/12/30 03:43:21;;;;;;;0.05;0.05;;;;;;;;;;5051454;28;20059;-88
2022/12/30 03:45:49;;;;;;;0.00;0.00;;;;;;;;;;5054840;28;20057;-89
2022/12/30 03:48:18;;;;;;;0.03;0.03;;;;;;;;;;5054544;28;20515;-88
2022/12/30 03:50:46;;;;;;;0.10;0.10;;;;;;;;;;5054448;28;20386;-90
2022/12/30 03:53:16;;;;;;;0.10;0.10;;;;;;;;;;5055921;28;20429;-88
2022/12/30 03:55:45;;;;;;;0.10;0.10;;;;;;;;;;5059161;28;20041;-89
2022/12/30 03:58:13;;;;;;;0.00;0.00;;;;;;;;;;5049559;28;20049;-90
2022/12/30 04:00:41;;;;;;;0.10;0.10;;;;;;;;;;5054857;28;20489;-92
2022/12/30 04:03:10;;;;;;;0.10;0.10;;;;;;;;;;5048947;28;20111;-88
2022/12/30 04:05:38;;;;;;;0.10;0.10;;;;;;;;;;5054240;28;20048;-88
2022/12/30 04:08:07;;;;;;;0.10;0.10;;;;;;;;;;5048558;28;20095;-88
2022/12/30 04:10:37;;;;;;;0.00;0.00;;;;;;;;;;5053146;28;20418;-86
2022/12/30 04:13:05;;;;;;;0.13;0.13;;;;;;;;;;5052082;28;20057;-86
2022/12/30 04:15:33;;;;;;;0.10;0.10;;;;;;;;;;5050035;28;20072;-86
2022/12/30 04:18:02;;;;;;;0.10;0.10;;;;;;;;;;5047088;28;20045;-87
2022/12/30 04:20:30;;;;;;;0.10;0.10;;;;;;;;;;5049272;28;20047;-90
2022/12/30 04:22:59;;;;;;;0.10;0.10;;;;;;;;;;5053944;28;20472;-90
2022/12/30 04:25:27;;;;;;;0.00;0.00;;;;;;;;;;5055781;28;20124;-87
2022/12/30 04:27:57;;;;;;;0.17;0.17;;;;;;;;;;5043985;28;20038;-91
2022/12/30 04:30:26;;;;;;;0.10;0.10;;;;;;;;;;5052413;28;20710;-91
2022/12/30 04:32:54;;;;;;;0.10;0.10;;;;;;;;;;5053043;28;20144;-90
2022/12/30 04:35:23;;;;;;;0.10;0.10;;;;;;;;;;5053331;28;20067;-88
2022/12/30 04:37:51;;;;;;;0.10;0.10;;;;;;;;;;5052952;28;20052;-90
2022/12/30 04:40:20;;;;;;;0.10;0.10;;;;;;;;;;5049346;28;20045;-89
2022/12/30 04:42:48;;;;;;;0.10;0.10;;;;;;;;;;5061334;28;20051;-88
2022/12/30 04:45:18;;;;;;;0.10;0.10;;;;;;;;;;5053582;28;20811;-89
2022/12/30 04:47:46;;;;;;;1.00;0.10;;;;;;;;;;5051892;28;20383;-88
2022/12/30 04:50:15;;;;;;;0.10;0.10;;;;;;;;;;5056392;28;20045;-92
2022/12/30 04:52:43;;;;;;;0.20;0.20;;;;;;;;;;5060588;28;20048;-88
2022/12/30 04:55:12;;;;;;;0.15;0.15;;;;;;;;;;5051512;28;20326;-87
2022/12/30 04:57:40;;;;;;;0.63;0.13;;;;;;;;;;5052860;28;20152;-92
2022/12/30 05:00:09;;;;;;;0.10;0.10;;;;;;;;;;5049787;28;20128;-88
2022/12/30 05:02:39;;;;;;;0.10;0.10;;;;;;;;;;5049456;28;20136;-92
2022/12/30 05:05:08;;;;;;;0.10;0.10;;;;;;;;;;5049061;28;20051;-93
2022/12/30 05:07:37;;;;;;;0.10;0.10;;;;;;;;;;5054210;28;20056;-91
2022/12/30 05:10:06;;;;;;;0.10;0.10;;;;;;;;;;5051636;28;20056;-89
2022/12/30 05:12:34;;;;;;;0.10;0.10;;;;;;;;;;5046442;28;20048;-90
2022/12/30 05:15:03;;;;;;;0.10;0.10;;;;;;;;;;5052497;28;20044;-90
2022/12/30 05:17:32;;;;;;;0.10;0.10;;;;;;;;;;5052067;28;20059;-94
2022/12/30 05:20:01;;;;;;;0.00;0.00;;;;;;;;;;5035738;28;20167;-91
2022/12/30 05:22:30;;;;;;;0.05;0.05;;;;;;;;;;5049423;28;20095;-90
2022/12/30 05:27:44;;;;;;;0.10;0.10;;;;;;;;;;5042487;28;20136;-89
2022/12/30 05:30:13;;;;;;;0.10;0.10;;;;;;;;;;5043005;28;20055;-89
2022/12/30 05:32:41;;;;;;;0.10;0.10;;;;;;;;;;5046106;28;20041;-91
2022/12/30 05:35:11;;;;;;;0.10;0.10;;;;;;;;;;5053521;28;20045;-88
2022/12/30 05:37:40;;;;;;;0.43;0.30;;;;;;;;;;5053030;28;20059;-90
2022/12/30 05:40:09;;;;;;;0.10;0.10;;;;;;;;;;5048855;28;20041;-91
2022/12/30 05:42:38;;;;;;;0.10;0.10;;;;;;;;;;5055076;28;20045;-91
2022/12/30 05:45:07;;;;;;;0.10;0.10;;;;;;;;;;5055332;28;20076;-90
2022/12/30 05:47:36;;;;;;;0.00;0.00;;;;;;;;;;5056371;28;20060;-90
2022/12/30 05:50:04;;;;;;;0.05;0.05;;;;;;;;;;5051643;28;20132;-90
2022/12/30 05:52:34;;;;;;;0.10;0.10;;;;;;;;;;5055539;28;20092;-90
2022/12/30 05:55:03;;;;;;;0.10;0.10;;;;;;;;;;5053765;28;20144;-90
2022/12/30 05:57:31;;;;;;;0.13;0.13;;;;;;;;;;5046856;28;20061;-93
2022/12/30 06:00:00;;;;;;;0.10;0.10;;;;;;;;;;5056348;28;20036;-90
2022/12/30 06:02:29;;;;;;;0.10;0.10;;;;;;;;;;5054037;28;20057;-88
2022/12/30 06:05:04;;;;;;;0.10;0.10;;;;;;;;;;5048165;28;20053;-90
2022/12/30 06:07:34;;;;;;;0.10;0.10;;;;;;;;;;5050655;28;20572;-89
2022/12/30 06:10:03;;;;;;;0.10;0.10;;;;;;;;;;5053055;28;20117;-89
2022/12/30 06:12:32;;;;;;;0.10;0.10;;;;;;;;;;5053680;28;20055;-88
2022/12/30 06:15:01;;;;;;;0.20;0.20;;;;;;;;;;5053067;28;20056;-88
2022/12/30 06:17:29;;;;;;;0.15;0.15;;;;;;;;;;5054277;28;20072;-87
2022/12/30 06:19:58;;;;;;;0.15;0.15;;;;;;;;;;5047773;28;20622;-88
2022/12/30 06:22:26;;;;;;;0.03;0.03;;;;;;;;;;5049524;28;20088;-88
2022/12/30 06:24:56;;;;;;;0.10;0.10;;;;;;;;;;5050543;28;20060;-89
2022/12/30 06:27:24;;;;;;;0.00;0.00;;;;;;;;;;5051479;28;20080;-87
2022/12/30 06:29:53;;;;;;;0.05;0.05;;;;;;;;;;5047543;28;20147;-88
2022/12/30 06:32:21;;;;;;;0.10;0.10;;;;;;;;;;5048383;28;20531;-88
2022/12/30 06:34:50;;;;;;;0.10;0.10;;;;;;;;;;5047896;28;20044;-87
2022/12/30 06:37:18;;;;;;;0.10;0.10;;;;;;;;;;5039733;28;20131;-87
2022/12/30 06:39:46;;;;;;;0.10;0.10;;;;;;;;;;5046875;28;20048;-88
2022/12/30 06:42:17;;;;;;;0.10;0.10;;;;;;;;;;5056037;28;20084;-87
2022/12/30 06:44:46;;;;;;;0.47;0.30;;;;;;;;;;5041666;28;20128;-88
2022/12/30 06:47:14;;;;;;;0.10;0.10;;;;;;;;;;5039928;28;20136;-87
2022/12/30 06:49:43;;;;;;;0.10;0.10;;;;;;;;;;5043113;28;20057;-87
2022/12/30 06:52:12;;;;;;;0.20;0.20;;;;;;;;;;5042458;28;20069;-87
2022/12/30 06:54:41;;;;;;;0.25;0.17;;;;;;;;;;5046638;28;20365;-87
2022/12/30 06:57:10;;;;;;;0.10;0.10;;;;;;;;;;5049614;28;20060;-86
2022/12/30 06:59:39;;;;;;;0.20;0.20;;;;;;;;;;5049054;28;20047;-87
2022/12/30 07:02:08;;;;;;;0.10;0.10;;;;;;;;;;5051126;28;20113;-87
2022/12/30 07:04:36;;;;;;;0.10;0.10;;;;;;;;;;5049331;28;20049;-86
2022/12/30 07:07:06;;;;;;;0.10;0.10;;;;;;;;;;5046322;28;20802;-85
2022/12/30 07:09:34;;;;;;;0.10;0.10;;;;;;;;;;5048341;28;20067;-87
2022/12/30 07:12:03;;;;;;;0.10;0.10;;;;;;;;;;5051257;28;20104;-86
2022/12/30 07:14:31;;;;;;;0.10;0.10;;;;;;;;;;5045321;28;20071;-88
2022/12/30 07:17:01;;;;;;;0.00;0.00;;;;;;;;;;5053430;28;20079;-87
2022/12/30 07:19:29;;;;;;;0.10;0.10;;;;;;;;;;5049565;28;20113;-87
2022/12/30 07:21:58;;;;;;;0.10;0.10;;;;;;;;;;5050145;28;20055;-87
2022/12/30 07:24:26;;;;;;;0.10;0.10;;;;;;;;;;5054167;28;20053;-87
2022/12/30 07:26:55;;;;;;;0.70;0.22;;;;;;;;;;5053203;28;20059;-87
2022/12/30 07:29:23;;;;;;;0.10;0.10;;;;;;;;;;5049444;28;20106;-86
2022/12/30 07:31:51;;;;;;;0.10;0.10;;;;;;;;;;5053780;28;20049;-85
2022/12/30 07:34:21;;;;;;;1.20;0.38;;;;;;;;;;5058315;28;20072;-87
2022/12/30 07:36:50;;;;;;;0.10;0.10;;;;;;;;;;5050835;28;20036;-87
2022/12/30 07:39:18;;;;;;;0.25;0.20;;;;;;;;;;5052559;28;20152;-87
2022/12/30 07:41:47;;;;;;;0.10;0.10;;;;;;;;;;5048860;28;20073;-88
2022/12/30 07:44:15;;;;;;;0.30;0.30;;;;;;;;;;5052812;28;20052;-86
2022/12/30 07:46:44;;;;;;;1.77;0.30;;;;;;;;;;5052963;28;20333;-87
2022/12/30 07:49:12;;;;;;;0.10;0.10;;;;;;;;;;5051385;28;20081;-86
2022/12/30 07:51:42;;;;;;;0.10;0.10;;;;;;;;;;5049897;28;20423;-87
2022/12/30 07:54:11;;;;;;;0.10;0.10;;;;;;;;;;5054766;28;20041;-86
2022/12/30 07:56:39;;;;;;;0.20;0.20;;;;;;;;;;5053526;28;20065;-87
2022/12/30 07:59:08;;;;;;;0.80;0.15;;;;;;;;;;5049096;28;20037;-85
2022/12/30 08:01:36;;;;;;;0.32;0.32;;;;;;;;;;5056409;28;20053;-86
2022/12/30 08:04:06;;;;;;;0.10;0.10;;;;;;;;;;5058084;28;20057;-86
2022/12/30 08:06:56;;;;;;;0.10;0.10;;;;;;;;;;5048309;28;20048;-86
2022/12/30 08:09:26;;;;;;;0.43;0.43;;;;;;;;;;5055284;28;20136;-87
2022/12/30 08:11:54;;;;;;;0.10;0.10;;;;;;;;;;5050514;28;20132;-87
2022/12/30 08:14:24;;;;;;;0.17;0.17;;;;;;;;;;5052397;28;20474;-86
2022/12/30 08:16:53;;;;;;;0.10;0.10;;;;;;;;;;5048548;28;20104;-86
2022/12/30 08:19:21;;;;;;;0.10;0.10;;;;;;;;;;5055653;28;20117;-86
2022/12/30 08:21:50;;;;;;;0.10;0.10;;;;;;;;;;5053911;28;20053;-84
2022/12/30 08:24:24;;;;;;;1.45;0.38;;;;;;;;;;5055138;28;20087;-86
2022/12/30 08:26:53;;;;;;;0.25;0.25;;;;;;;;;;5047985;28;20048;-86
2022/12/30 08:29:22;;;;;;;0.10;0.10;;;;;;;;;;5050869;28;20073;-86
2022/12/30 08:31:50;;;;;;;0.20;0.20;;;;;;;;;;5052382;28;20048;-86
2022/12/30 08:34:19;;;;;;;0.10;0.10;;;;;;;;;;5055390;28;20064;-86
2022/12/30 08:36:48;;;;;;;0.10;0.10;;;;;;;;;;5044428;28;20083;-86
2022/12/30 08:39:17;;;;;;;1.33;0.50;;;;;;;;;;5055986;28;20147;-86
2022/12/30 08:41:47;;;;;;;0.00;0.00;;;;;;;;;;5049826;28;20080;-86
2022/12/30 08:44:24;;;;;;;0.10;0.10;;;;;;;;;;5051163;28;20083;-86
2022/12/30 08:46:56;;;;;;;0.10;0.10;;;;;;;;;;5048621;28;20080;-85
2022/12/30 08:49:27;;;;;;;0.15;0.15;;;;;;;;;;5050675;28;20084;-86
2022/12/30 08:51:55;;;;;;;1.83;0.20;;;;;;;;;;5054386;28;20045;-90
2022/12/30 08:54:24;;;;;;;0.10;0.10;;;;;;;;;;5055991;28;20122;-90
2022/12/30 08:56:54;;;;;;;0.03;0.03;;;;;;;;;;5049368;28;20498;-89
2022/12/30 08:59:22;;;;;;;0.20;0.20;;;;;;;;;;5050986;28;20045;-87
2022/12/30 09:01:51;;;;;;;0.10;0.10;;;;;;;;;;5047137;28;20387;-88
2022/12/30 09:04:20;;;;;;;0.13;0.13;;;;;;;;;;5047688;28;20136;-84
2022/12/30 09:06:48;;;;;;;0.45;0.10;;;;;;;;;;5049205;28;20068;-85
2022/12/30 09:09:17;;;;;;;0.20;0.20;;;;;;;;;;5046608;28;20049;-84
2022/12/30 09:11:45;;;;;;;0.10;0.10;;;;;;;;;;5054097;28;20124;-84
2022/12/30 09:14:16;;;;;;;0.38;0.38;;;;;;;;;;5051535;28;20059;-85
2022/12/30 09:16:45;;;;;;;0.17;0.17;;;;;;;;;;5049267;28;20049;-85
2022/12/30 09:19:13;;;;;;;0.25;0.25;;;;;;;;;;5050389;28;20053;-84
2022/12/30 09:21:49;;;;;;;0.10;0.10;;;;;;;;;;5044371;28;20047;-87
2022/12/30 09:24:18;;;;;;;0.57;0.25;;;;;;;;;;5060752;28;20048;-86
2022/12/30 09:26:47;;;;;;;0.10;0.10;;;;;;;;;;5060175;28;20098;-86
2022/12/30 09:29:18;;;;;;;0.20;0.20;;;;;;;;;;5055142;28;20053;-85
2022/12/30 09:31:46;;;;;;;0.17;0.17;;;;;;;;;;5060392;28;20044;-86
2022/12/30 09:34:15;;;;;;;0.20;0.20;;;;;;;;;;5053550;28;20053;-85
2022/12/30 09:36:43;;;;;;;0.10;0.10;;;;;;;;;;5053423;28;20124;-86
2022/12/30 09:39:13;;;;;;;0.47;0.20;;;;;;;;;;5050324;28;20059;-87
2022/12/30 09:44:42;;;;;;;0.10;0.10;;;;;;;;;;5056181;28;20489;-87
2022/12/30 09:47:14;;;;;;;0.10;0.10;;;;;;;;;;5052733;28;20052;-89
2022/12/30 09:49:48;;;;;;;3.72;0.13;;;;;;;;;;5054426;28;20131;-87
2022/12/30 09:52:21;;;;;;;0.35;0.17;;;;;;;;;;5062654;28;20786;-87
2022/12/30 09:54:55;;;;;;;0.65;0.13;;;;;;;;;;5054585;28;20053;-91
2022/12/30 09:57:33;;;;;;;0.10;0.10;;;;;;;;;;5056611;28;20132;-91
2022/12/30 10:00:08;;;;;;;1.55;0.55;;;;;;;;;;5052784;28;20382;-92
2022/12/30 10:02:44;;;;;;;0.10;0.10;;;;;;;;;;5054919;28;20084;-91
2022/12/30 10:05:14;;;;;;;0.10;0.10;;;;;;;;;;5059719;28;20060;-92
2022/12/30 10:07:46;;;;;;;0.10;0.10;;;;;;;;;;5054270;28;20060;-90
2022/12/30 10:10:19;;;;;;;0.20;0.20;;;;;;;;;;5063577;28;20135;-91
2022/12/30 10:12:52;;;;;;;0.10;0.10;;;;;;;;;;5055046;28;20040;-92
2022/12/30 10:15:30;;;;;;;0.15;0.15;;;;;;;;;;5051899;28;20044;-89
2022/12/30 10:18:07;;;;;;;0.10;0.10;;;;;;;;;;5055515;28;20461;-91
2022/12/30 10:20:45;;;;;;;0.15;0.15;;;;;;;;;;5057136;28;20044;-91
2022/12/30 10:23:19;;;;;;;0.55;0.22;;;;;;;;;;5056229;28;20045;-91
2022/12/30 10:25:52;;;;;;;0.10;0.10;;;;;;;;;;5051735;28;20037;-91
2022/12/30 10:28:26;;;;;;;0.10;0.10;;;;;;;;;;5056116;28;20079;-90
2022/12/30 10:30:56;;;;;;;0.77;0.30;;;;;;;;;;5050329;28;20049;-91
2022/12/30 10:33:25;;;;;;;0.10;0.10;;;;;;;;;;5052110;28;20057;-89
2022/12/30 10:35:55;;;;;;;0.08;0.08;;;;;;;;;;5057691;28;20151;-89
2022/12/30 10:38:29;;;;;;;0.10;0.10;;;;;;;;;;5056379;28;20060;-93
2022/12/30 10:41:03;;;;;;;0.35;0.35;;;;;;;;;;5053901;28;20048;-92
2022/12/30 10:43:42;;;;;;;3.83;0.43;;;;;;;;;;5061204;28;20040;-88
2022/12/30 10:46:19;;;;;;;0.05;0.05;;;;;;;;;;5055616;28;20068;-90
2022/12/30 10:48:54;;;;;;;0.28;0.20;;;;;;;;;;5054077;28;20049;-89
2022/12/30 10:51:24;;;;;;;0.30;0.30;;;;;;;;;;5049822;28;20114;-90
2022/12/30 10:53:53;;;;;;;0.10;0.10;;;;;;;;;;5054785;28;20160;-92
2022/12/30 10:56:24;;;;;;;0.52;0.30;;;;;;;;;;5053179;28;20084;-87
2022/12/30 10:58:53;;;;;;;0.10;0.10;;;;;;;;;;5058439;28;20075;-88
2022/12/30 11:01:31;;;;;;;0.10;0.10;;;;;;;;;;5048132;28;20051;-88
2022/12/30 11:04:02;;;;;;;0.00;0.00;;;;;;;;;;5059987;28;20051;-90
2022/12/30 11:06:32;;;;;;;0.10;0.10;;;;;;;;;;5055855;28;20325;-90
2022/12/30 11:09:23;;;;;;;1.08;0.10;;;;;;;;;;5060513;28;20048;-89
2022/12/30 11:15:11;;;;;;;0.57;0.17;;;;;;;;;;5055453;28;20591;-89
2022/12/30 11:17:43;;;;;;;0.55;0.20;;;;;;;;;;5049982;28;20501;-93
2022/12/30 11:20:22;;;;;;;0.20;0.20;;;;;;;;;;5049786;28;20077;-87
2022/12/30 11:22:52;;;;;;;0.30;0.30;;;;;;;;;;5052754;28;20060;-90
2022/12/30 11:25:26;;;;;;;0.20;0.20;;;;;;;;;;5057662;28;20045;-90
2022/12/30 11:27:56;;;;;;;0.17;0.10;;;;;;;;;;5055745;28;20049;-88
2022/12/30 11:30:26;;;;;;;0.63;0.17;;;;;;;;;;5053659;28;20045;-89
2022/12/30 11:32:57;;;;;;;0.10;0.10;;;;;;;;;;5048547;28;20049;-87
2022/12/30 11:35:36;;;;;;;0.00;0.00;;;;;;;;;;5058916;28;20091;-87
2022/12/30 11:38:07;;;;;;;0.10;0.10;;;;;;;;;;5054020;28;20083;-90
2022/12/30 11:40:36;;;;;;;0.75;0.30;;;;;;;;;;5052627;28;20091;-91
2022/12/30 11:43:07;;;;;;;0.10;0.10;;;;;;;;;;5057650;28;20045;-94
2022/12/30 11:45:35;;;;;;;0.20;0.20;;;;;;;;;;5060066;28;20059;-90
2022/12/30 11:48:05;;;;;;;0.10;0.10;;;;;;;;;;5058186;28;20049;-90
2022/12/30 11:50:34;;;;;;;0.10;0.10;;;;;;;;;;5051334;28;20053;-87
2022/12/30 11:53:04;;;;;;;0.20;0.20;;;;;;;;;;5055644;28;20045;-91
2022/12/30 11:55:33;;;;;;;0.32;0.22;;;;;;;;;;5057830;28;20400;-90
2022/12/30 11:58:02;;;;;;;0.10;0.10;;;;;;;;;;5056798;28;20091;-89
2022/12/30 12:00:37;;;;;;;0.60;0.30;;;;;;;;;;5053326;28;20105;-86
2022/12/30 12:03:08;;;;;;;0.10;0.10;;;;;;;;;;5049827;28;20052;-92
2022/12/30 12:05:40;;;;;;;0.28;0.15;;;;;;;;;;5052423;28;20053;-85
2022/12/30 12:08:12;;;;;;;1.05;0.30;;;;;;;;;;5056515;28;20060;-86
2022/12/30 12:10:40;;;;;;;0.10;0.10;;;;;;;;;;5054446;28;20045;-87
2022/12/30 12:13:14;;;;;;;0.10;0.10;;;;;;;;;;5055331;28;20076;-87
2022/12/30 12:15:44;;;;;;;0.10;0.10;;;;;;;;;;5052588;28;20088;-88
2022/12/30 12:18:18;;;;;;;0.10;0.10;;;;;;;;;;5054462;28;20072;-94
2022/12/30 12:20:56;;;;;;;0.10;0.10;;;;;;;;;;5050854;28;20040;-91
2022/12/30 12:23:28;;;;;;;0.10;0.10;;;;;;;;;;5051978;28;20491;-89
2022/12/30 12:26:02;;;;;;;0.30;0.10;;;;;;;;;;5055458;28;20151;-90
2022/12/30 12:28:32;;;;;;;0.38;0.15;;;;;;;;;;5056856;28;20100;-88
2022/12/30 12:31:09;;;;;;;1.55;0.10;;;;;;;;;;5055303;28;20055;-94
2022/12/30 12:33:42;;;;;;;0.10;0.10;;;;;;;;;;5054867;28;20405;-93
2022/12/30 12:36:17;;;;;;;0.10;0.10;;;;;;;;;;5057396;28;20041;-90
2022/12/30 12:38:53;;;;;;;2.03;0.20;;;;;;;;;;5049034;28;20065;-88
2022/12/30 12:41:26;;;;;;;0.20;0.20;;;;;;;;;;5054037;28;20072;-90
2022/12/30 12:44:07;;;;;;;0.17;0.17;;;;;;;;;;5055092;28;20410;-87
2022/12/30 12:46:42;;;;;;;0.20;0.20;;;;;;;;;;5054230;28;20215;-91
2022/12/30 12:49:28;;;;;;;0.55;0.20;;;;;;;;;;5046992;28;20070;-90
2022/12/30 12:52:04;;;;;;;0.10;0.10;;;;;;;;;;5015773;28;20539;-89
2022/12/30 12:54:50;;;;;;;0.57;0.30;;;;;;;;;;5050198;28;20044;-88
2022/12/30 12:57:24;;;;;;;0.25;0.10;;;;;;;;;;5042282;28;20089;-90
2022/12/30 13:00:07;;;;;;;0.03;0.03;;;;;;;;;;5054150;28;20059;-92
2022/12/30 13:02:51;;;;;;;0.28;0.25;;;;;;;;;;5056244;28;20045;-93
2022/12/30 13:05:25;;;;;;;0.88;0.30;;;;;;;;;;5026930;28;20067;-92
2022/12/30 13:07:58;;;;;;;0.10;0.10;;;;;;;;;;5054208;28;20037;-92
2022/12/30 13:10:49;;;;;;;0.70;0.38;;;;;;;;;;5050868;28;20480;-90
2022/12/30 13:13:42;;;;;;;0.10;0.10;;;;;;;;;;5055632;28;20048;-90
2022/12/30 13:16:13;;;;;;;0.28;0.17;;;;;;;;;;5045865;28;20112;-92
2022/12/30 13:18:44;;;;;;;0.10;0.10;;;;;;;;;;5051865;28;20068;-92
2022/12/30 13:21:14;;;;;;;0.10;0.10;;;;;;;;;;5053121;28;20176;-93
2022/12/30 13:23:47;;;;;;;1.15;0.30;;;;;;;;;;5048384;28;20050;-92
2022/12/30 13:26:16;;;;;;;2.08;0.30;;;;;;;;;;5047741;28;20140;-94
2022/12/30 13:28:48;;;;;;;0.57;0.20;;;;;;;;;;5052771;28;20052;-88
2022/12/30 13:31:25;;;;;;;0.10;0.10;;;;;;;;;;5057387;28;20100;-91
2022/12/30 13:33:59;;;;;;;0.30;0.28;;;;;;;;;;5055967;28;20079;-94
2022/12/30 13:36:31;;;;;;;0.40;0.20;;;;;;;;;;5054938;28;20049;-93
2022/12/30 13:39:05;;;;;;;0.10;0.10;;;;;;;;;;5053465;28;20048;-91
2022/12/30 13:41:52;;;;;;;0.35;0.20;;;;;;;;;;5054890;28;20090;-92
2022/12/30 13:44:21;;;;;;;0.10;0.10;;;;;;;;;;5028839;28;20133;-95
2022/12/30 13:46:50;;;;;;;0.17;0.17;;;;;;;;;;5051734;28;20123;-94
2022/12/30 13:49:23;;;;;;;0.17;0.17;;;;;;;;;;5060073;28;20057;-90
2022/12/30 13:51:56;;;;;;;0.40;0.32;;;;;;;;;;5054048;28;20045;-89
2022/12/30 13:54:28;;;;;;;0.90;0.40;;;;;;;;;;5055988;28;20076;-92
2022/12/30 13:56:59;;;;;;;1.02;0.30;;;;;;;;;;5054301;28;20057;-91
2022/12/30 13:59:29;;;;;;;0.10;0.10;;;;;;;;;;5048725;28;20130;-91
2022/12/30 14:02:16;;;;;;;0.55;0.17;;;;;;;;;;5049314;28;20409;-92
2022/12/30 14:04:46;;;;;;;0.40;0.25;;;;;;;;;;5055000;28;20075;-91
2022/12/30 14:07:33;;;;;;;0.17;0.17;;;;;;;;;;5054816;28;20052;-90
2022/12/30 14:10:21;;;;;;;1.17;0.35;;;;;;;;;;5049660;28;20072;-91
2022/12/30 14:13:07;;;;;;;0.10;0.10;;;;;;;;;;5042056;28;20056;-91
2022/12/30 14:15:52;;;;;;;1.00;0.47;;;;;;;;;;5053446;28;20041;-94
2022/12/30 14:18:21;;;;;;;;;;;;;;;;;;5040333;28;20120;-92
2022/12/30 14:20:57;;;;;;;0.85;0.85;;;;;;;;;;5049630;28;20357;-93
2022/12/30 14:23:43;;;;;;;0.65;0.17;;;;;;;;;;5051372;28;20064;-96
2022/12/30 14:26:36;;;;;;;0.15;0.15;;;;;;;;;;5052454;28;20074;-91
2022/12/30 14:29:19;;;;;;;0.28;0.28;;;;;;;;;;5054905;28;20118;-93
2022/12/30 14:31:50;;;;;;;0.50;0.45;;;;;;;;;;5054249;28;20106;-90
2022/12/30 14:34:25;;;;;;;0.40;0.30;;;;;;;;;;5053846;28;20725;-93
2022/12/30 14:36:59;;;;;;;0.28;0.20;;;;;;;;;;5055453;28;20131;-93
2022/12/30 14:39:29;;;;;;;0.38;0.20;;;;;;;;;;5058451;28;20528;-94
2022/12/30 14:41:58;;;;;;;1.45;0.15;;;;;;;;;;5054198;28;20084;-94
2022/12/30 14:44:29;;;;;;;0.57;0.30;;;;;;;;;;5057596;28;20136;-94
2022/12/30 14:47:00;;;;;;;1.00;0.45;;;;;;;;;;5054119;28;20555;-92
2022/12/30 14:49:32;;;;;;;2.50;0.40;;;;;;;;;;5055836;28;20092;-91
2022/12/30 14:52:04;;;;;;;0.10;0.10;;;;;;;;;;5053610;28;20048;-92
2022/12/30 14:54:37;;;;;;;3.10;0.50;;;;;;;;;;5054336;28;20045;-92
2022/12/30 14:57:12;;;;;;;0.10;0.10;;;;;;;;;;5052186;28;20490;-94
2022/12/30 14:59:49;;;;;;;0.28;0.20;;;;;;;;;;5050798;28;20075;-93
2022/12/30 15:02:19;;;;;;;0.10;0.10;;;;;;;;;;5053099;28;20064;-91
2022/12/30 15:04:49;;;;;;;0.20;0.20;;;;;;;;;;5052779;28;20247;-94
2022/12/30 15:07:23;;;;;;;0.25;0.20;;;;;;;;;;5047239;28;20049;-96
2022/12/30 15:09:53;;;;;;;0.17;0.17;;;;;;;;;;5049689;28;20052;-90
2022/12/30 15:12:22;;;;;;;0.35;0.22;;;;;;;;;;5046948;28;20327;-92
2022/12/30 15:14:53;;;;;;;0.30;0.30;;;;;;;;;;5046435;28;20064;-93
2022/12/30 15:17:25;;;;;;;1.33;0.30;;;;;;;;;;5046394;28;20042;-86
2022/12/30 15:19:53;;;;;;;1.65;0.30;;;;;;;;;;5051519;28;20561;-91
2022/12/30 15:22:23;;;;;;;0.40;0.22;;;;;;;;;;5054944;28;20052;-91
2022/12/30 15:24:52;;;;;;;0.10;0.10;;;;;;;;;;5050114;28;20186;-89
2022/12/30 15:27:23;;;;;;;0.10;0.10;;;;;;;;;;5046173;28;20114;-92
2022/12/30 15:29:53;;;;;;;0.17;0.17;;;;;;;;;;5051322;28;20053;-92
2022/12/30 15:32:27;;;;;;;0.63;0.40;;;;;;;;;;5050251;28;20132;-94
2022/12/30 15:34:57;;;;;;;1.08;0.32;;;;;;;;;;5053601;28;20095;-89
2022/12/30 15:37:30;;;;;;;1.17;0.30;;;;;;;;;;5048744;28;20041;-90
2022/12/30 15:40:00;;;;;;;0.20;0.20;;;;;;;;;;5052232;28;20584;-92
2022/12/30 15:42:33;;;;;;;0.20;0.20;;;;;;;;;;5056066;28;20045;-90
2022/12/30 15:45:03;;;;;;;0.32;0.20;;;;;;;;;;5052464;28;20064;-91
2022/12/30 15:47:32;;;;;;;0.10;0.10;;;;;;;;;;5053026;28;20136;-93
2022/12/30 15:50:01;;;;;;;0.57;0.40;;;;;;;;;;5047568;28;20284;-93
2022/12/30 15:52:33;;;;;;;0.13;0.13;;;;;;;;;;5051193;28;20057;-93
2022/12/30 15:55:03;;;;;;;0.70;0.52;;;;;;;;;;5055111;28;20041;-94
2022/12/30 15:57:33;;;;;;;0.20;0.20;;;;;;;;;;5051006;28;20678;-92
2022/12/30 16:00:06;;;;;;;0.43;0.35;;;;;;;;;;5052238;28;20136;-92
2022/12/30 16:02:39;;;;;;;0.35;0.22;;;;;;;;;;5050909;28;20049;-94
2022/12/30 16:05:09;;;;;;;0.30;0.27;;;;;;;;;;5056304;28;20053;-93
2022/12/30 16:07:39;;;;;;;1.13;0.40;;;;;;;;;;5055332;28;21284;-93
2022/12/30 16:10:24;;;;;;;0.25;0.25;;;;;;;;;;5051667;28;20061;-89